sensor_id;sensor_type;location;lat;lon;timestamp;pressure;altitude;pressure_sealevel;temperature;humidity
74466;BME280;62916;50.044;15.938;2023-07-08T00:00:58;99638.92;;;27.66;36.67
74466;BME280;62916;50.044;15.938;2023-07-08T00:03:29;99637.59;;;27.68;36.28
74466;BME280;62916;50.044;15.938;2023-07-08T00:06:00;99637.67;;;27.68;36.43
74466;BME280;62916;50.044;15.938;2023-07-08T00:08:31;99635.20;;;27.67;36.35
74466;BME280;62916;50.044;15.938;2023-07-08T00:11:04;99638.88;;;27.65;36.47
74466;BME280;62916;50.044;15.938;2023-07-08T00:13:38;99637.86;;;27.62;36.56
74466;BME280;62916;50.044;15.938;2023-07-08T00:16:12;99639.33;;;27.60;36.64
74466;BME280;62916;50.044;15.938;2023-07-08T00:18:43;99638.08;;;27.59;36.37
74466;BME280;62916;50.044;15.938;2023-07-08T00:21:15;99638.05;;;27.57;36.63
74466;BME280;62916;50.044;15.938;2023-07-08T00:23:47;99637.63;;;27.57;36.66
74466;BME280;62916;50.044;15.938;2023-07-08T00:26:22;99635.38;;;27.56;36.66
74466;BME280;62916;50.044;15.938;2023-07-08T00:28:54;99635.17;;;27.55;36.58
74466;BME280;62916;50.044;15.938;2023-07-08T00:31:25;99633.16;;;27.54;36.47
74466;BME280;62916;50.044;15.938;2023-07-08T00:33:57;99634.08;;;27.52;36.45
74466;BME280;62916;50.044;15.938;2023-07-08T00:36:29;99635.19;;;27.52;36.56
74466;BME280;62916;50.044;15.938;2023-07-08T00:39:00;99629.45;;;27.50;36.46
74466;BME280;62916;50.044;15.938;2023-07-08T00:41:35;99628.64;;;27.50;36.60
74466;BME280;62916;50.044;15.938;2023-07-08T00:44:11;99629.73;;;27.48;36.63
74466;BME280;62916;50.044;15.938;2023-07-08T00:46:50;99628.02;;;27.48;36.58
74466;BME280;62916;50.044;15.938;2023-07-08T00:49:34;99630.66;;;27.50;36.33
74466;BME280;62916;50.044;15.938;2023-07-08T00:52:24;99633.03;;;27.48;36.48
74466;BME280;62916;50.044;15.938;2023-07-08T00:54:56;99634.52;;;27.47;36.43
74466;BME280;62916;50.044;15.938;2023-07-08T00:57:31;99638.41;;;27.47;36.50
74466;BME280;62916;50.044;15.938;2023-07-08T01:00:06;99636.58;;;27.46;36.34
74466;BME280;62916;50.044;15.938;2023-07-08T01:02:41;99634.27;;;27.43;36.64
74466;BME280;62916;50.044;15.938;2023-07-08T01:05:14;99639.61;;;27.44;36.42
74466;BME280;62916;50.044;15.938;2023-07-08T01:07:51;99641.30;;;27.44;36.38
74466;BME280;62916;50.044;15.938;2023-07-08T01:10:29;99641.01;;;27.42;36.48
74466;BME280;62916;50.044;15.938;2023-07-08T01:13:05;99643.73;;;27.43;36.57
74466;BME280;62916;50.044;15.938;2023-07-08T01:15:42;99645.09;;;27.43;36.65
74466;BME280;62916;50.044;15.938;2023-07-08T01:18:16;99645.58;;;27.45;36.43
74466;BME280;62916;50.044;15.938;2023-07-08T01:20:50;99647.52;;;27.45;36.51
74466;BME280;62916;50.044;15.938;2023-07-08T01:23:25;99643.74;;;27.44;36.59
74466;BME280;62916;50.044;15.938;2023-07-08T01:25:55;99645.40;;;27.42;36.55
74466;BME280;62916;50.044;15.938;2023-07-08T01:28:27;99641.38;;;27.42;36.50
74466;BME280;62916;50.044;15.938;2023-07-08T01:30:58;99638.48;;;27.40;36.38
74466;BME280;62916;50.044;15.938;2023-07-08T01:33:34;99634.80;;;27.40;36.42
74466;BME280;62916;50.044;15.938;2023-07-08T01:36:07;99626.27;;;27.37;36.31
74466;BME280;62916;50.044;15.938;2023-07-08T01:38:39;99627.35;;;27.39;36.23
74466;BME280;62916;50.044;15.938;2023-07-08T01:41:14;99627.61;;;27.39;36.33
74466;BME280;62916;50.044;15.938;2023-07-08T01:43:45;99625.06;;;27.38;36.51
74466;BME280;62916;50.044;15.938;2023-07-08T01:46:20;99622.37;;;27.38;36.45
74466;BME280;62916;50.044;15.938;2023-07-08T01:48:54;99622.42;;;27.37;36.22
74466;BME280;62916;50.044;15.938;2023-07-08T01:51:28;99622.07;;;27.36;36.47
74466;BME280;62916;50.044;15.938;2023-07-08T01:53:58;99615.11;;;27.35;36.37
74466;BME280;62916;50.044;15.938;2023-07-08T01:56:30;99621.05;;;27.35;36.28
74466;BME280;62916;50.044;15.938;2023-07-08T01:59:00;99616.46;;;27.34;36.28
74466;BME280;62916;50.044;15.938;2023-07-08T02:01:31;99612.52;;;27.33;36.26
74466;BME280;62916;50.044;15.938;2023-07-08T02:04:02;99608.44;;;27.32;36.19
74466;BME280;62916;50.044;15.938;2023-07-08T02:06:33;99603.04;;;27.32;36.24
74466;BME280;62916;50.044;15.938;2023-07-08T02:09:04;99606.69;;;27.32;36.17
74466;BME280;62916;50.044;15.938;2023-07-08T02:11:35;99601.80;;;27.32;36.28
74466;BME280;62916;50.044;15.938;2023-07-08T02:14:06;99602.60;;;27.31;36.10
74466;BME280;62916;50.044;15.938;2023-07-08T02:16:37;99602.89;;;27.30;36.28
74466;BME280;62916;50.044;15.938;2023-07-08T02:19:08;99603.77;;;27.30;36.10
74466;BME280;62916;50.044;15.938;2023-07-08T02:21:39;99599.50;;;27.29;36.24
74466;BME280;62916;50.044;15.938;2023-07-08T02:24:10;99598.83;;;27.28;36.12
74466;BME280;62916;50.044;15.938;2023-07-08T02:26:41;99597.53;;;27.28;36.06
74466;BME280;62916;50.044;15.938;2023-07-08T02:29:11;99598.31;;;27.27;36.09
74466;BME280;62916;50.044;15.938;2023-07-08T02:31:42;99601.81;;;27.27;36.12
74466;BME280;62916;50.044;15.938;2023-07-08T02:34:13;99601.78;;;27.26;36.18
74466;BME280;62916;50.044;15.938;2023-07-08T02:36:44;99603.06;;;27.25;36.03
74466;BME280;62916;50.044;15.938;2023-07-08T02:39:15;99602.33;;;27.25;36.18
74466;BME280;62916;50.044;15.938;2023-07-08T02:41:46;99598.81;;;27.25;36.25
74466;BME280;62916;50.044;15.938;2023-07-08T02:44:17;99593.98;;;27.24;36.02
74466;BME280;62916;50.044;15.938;2023-07-08T02:46:48;99597.36;;;27.23;35.87
74466;BME280;62916;50.044;15.938;2023-07-08T02:49:19;99595.70;;;27.22;36.23
74466;BME280;62916;50.044;15.938;2023-07-08T02:51:50;99605.29;;;27.22;36.01
74466;BME280;62916;50.044;15.938;2023-07-08T02:54:21;99605.35;;;27.22;36.13
74466;BME280;62916;50.044;15.938;2023-07-08T02:56:52;99604.14;;;27.22;36.23
74466;BME280;62916;50.044;15.938;2023-07-08T02:59:23;99604.33;;;27.20;36.04
74466;BME280;62916;50.044;15.938;2023-07-08T03:01:53;99599.36;;;27.18;36.24
74466;BME280;62916;50.044;15.938;2023-07-08T03:04:24;99601.63;;;27.17;36.11
74466;BME280;62916;50.044;15.938;2023-07-08T03:06:55;99602.84;;;27.17;35.84
74466;BME280;62916;50.044;15.938;2023-07-08T03:09:26;99601.35;;;27.16;36.08
74466;BME280;62916;50.044;15.938;2023-07-08T03:11:58;99602.94;;;27.15;35.98
74466;BME280;62916;50.044;15.938;2023-07-08T03:14:30;99602.27;;;27.14;36.17
74466;BME280;62916;50.044;15.938;2023-07-08T03:17:01;99596.85;;;27.13;36.14
74466;BME280;62916;50.044;15.938;2023-07-08T03:19:32;99596.48;;;27.14;36.19
74466;BME280;62916;50.044;15.938;2023-07-08T03:22:03;99598.11;;;27.14;36.03
74466;BME280;62916;50.044;15.938;2023-07-08T03:24:35;99593.92;;;27.13;36.20
74466;BME280;62916;50.044;15.938;2023-07-08T03:27:06;99593.64;;;27.12;36.19
74466;BME280;62916;50.044;15.938;2023-07-08T03:29:38;99592.45;;;27.15;36.02
74466;BME280;62916;50.044;15.938;2023-07-08T03:32:11;99595.89;;;27.16;36.14
74466;BME280;62916;50.044;15.938;2023-07-08T03:34:42;99597.02;;;27.16;36.13
74466;BME280;62916;50.044;15.938;2023-07-08T03:37:13;99599.04;;;27.15;36.04
74466;BME280;62916;50.044;15.938;2023-07-08T03:39:43;99599.35;;;27.15;36.15
74466;BME280;62916;50.044;15.938;2023-07-08T03:42:14;99604.04;;;27.14;35.88
74466;BME280;62916;50.044;15.938;2023-07-08T03:44:45;99603.88;;;27.14;36.00
74466;BME280;62916;50.044;15.938;2023-07-08T03:47:16;99603.00;;;27.14;35.84
74466;BME280;62916;50.044;15.938;2023-07-08T03:49:47;99602.73;;;27.14;36.04
74466;BME280;62916;50.044;15.938;2023-07-08T03:52:18;99602.14;;;27.13;36.00
74466;BME280;62916;50.044;15.938;2023-07-08T03:54:49;99604.95;;;27.13;36.10
74466;BME280;62916;50.044;15.938;2023-07-08T03:57:20;99606.00;;;27.12;36.25
74466;BME280;62916;50.044;15.938;2023-07-08T03:59:51;99605.45;;;27.10;36.06
74466;BME280;62916;50.044;15.938;2023-07-08T04:02:21;99604.38;;;27.10;35.98
74466;BME280;62916;50.044;15.938;2023-07-08T04:04:52;99605.78;;;27.10;36.16
74466;BME280;62916;50.044;15.938;2023-07-08T04:07:23;99603.67;;;27.10;35.97
74466;BME280;62916;50.044;15.938;2023-07-08T04:09:54;99605.64;;;27.11;36.02
74466;BME280;62916;50.044;15.938;2023-07-08T04:12:25;99597.59;;;27.09;36.08
74466;BME280;62916;50.044;15.938;2023-07-08T04:14:55;99600.55;;;27.10;35.88
74466;BME280;62916;50.044;15.938;2023-07-08T04:17:26;99600.44;;;27.09;35.96
74466;BME280;62916;50.044;15.938;2023-07-08T04:19:57;99604.98;;;27.08;36.16
74466;BME280;62916;50.044;15.938;2023-07-08T04:22:35;99600.20;;;27.07;36.07
74466;BME280;62916;50.044;15.938;2023-07-08T04:25:07;99606.23;;;27.07;36.24
74466;BME280;62916;50.044;15.938;2023-07-08T04:27:39;99602.41;;;27.04;36.19
74466;BME280;62916;50.044;15.938;2023-07-08T04:30:18;99611.59;;;27.06;36.17
74466;BME280;62916;50.044;15.938;2023-07-08T04:32:52;99612.52;;;27.08;36.28
74466;BME280;62916;50.044;15.938;2023-07-08T04:35:23;99612.20;;;27.08;36.44
74466;BME280;62916;50.044;15.938;2023-07-08T04:37:54;99609.13;;;27.08;36.33
74466;BME280;62916;50.044;15.938;2023-07-08T04:40:24;99608.26;;;27.09;36.28
74466;BME280;62916;50.044;15.938;2023-07-08T04:42:55;99605.25;;;27.09;36.40
74466;BME280;62916;50.044;15.938;2023-07-08T04:45:29;99608.41;;;27.09;36.29
74466;BME280;62916;50.044;15.938;2023-07-08T04:48:00;99610.97;;;27.10;36.30
74466;BME280;62916;50.044;15.938;2023-07-08T04:50:38;99618.23;;;27.11;36.39
74466;BME280;62916;50.044;15.938;2023-07-08T04:53:09;99625.04;;;27.12;36.28
74466;BME280;62916;50.044;15.938;2023-07-08T04:55:42;99622.19;;;27.12;36.43
74466;BME280;62916;50.044;15.938;2023-07-08T04:58:14;99620.00;;;27.12;36.51
74466;BME280;62916;50.044;15.938;2023-07-08T05:00:45;99623.14;;;27.14;36.43
74466;BME280;62916;50.044;15.938;2023-07-08T05:03:16;99623.30;;;27.14;36.22
74466;BME280;62916;50.044;15.938;2023-07-08T05:05:47;99628.80;;;27.15;36.48
74466;BME280;62916;50.044;15.938;2023-07-08T05:08:18;99620.98;;;27.12;36.35
74466;BME280;62916;50.044;15.938;2023-07-08T05:10:48;99624.61;;;27.16;36.39
74466;BME280;62916;50.044;15.938;2023-07-08T05:13:19;99617.38;;;27.14;36.57
74466;BME280;62916;50.044;15.938;2023-07-08T05:15:51;99621.25;;;27.15;36.70
74466;BME280;62916;50.044;15.938;2023-07-08T05:18:23;99625.80;;;27.15;36.71
74466;BME280;62916;50.044;15.938;2023-07-08T05:20:55;99624.80;;;27.15;36.53
74466;BME280;62916;50.044;15.938;2023-07-08T05:23:27;99623.88;;;27.14;36.63
74466;BME280;62916;50.044;15.938;2023-07-08T05:26:00;99623.03;;;27.15;36.66
74466;BME280;62916;50.044;15.938;2023-07-08T05:28:29;99623.34;;;27.14;36.84
74466;BME280;62916;50.044;15.938;2023-07-08T05:31:00;99620.95;;;27.11;36.70
74466;BME280;62916;50.044;15.938;2023-07-08T05:33:32;99624.61;;;27.14;36.81
74466;BME280;62916;50.044;15.938;2023-07-08T05:36:03;99620.68;;;27.15;36.75
74466;BME280;62916;50.044;15.938;2023-07-08T05:38:34;99623.29;;;27.15;36.80
74466;BME280;62916;50.044;15.938;2023-07-08T05:41:05;99626.28;;;27.15;36.95
74466;BME280;62916;50.044;15.938;2023-07-08T05:43:36;99628.95;;;27.17;36.88
74466;BME280;62916;50.044;15.938;2023-07-08T05:46:07;99630.98;;;27.17;36.73
74466;BME280;62916;50.044;15.938;2023-07-08T05:48:41;99627.17;;;27.17;36.75
74466;BME280;62916;50.044;15.938;2023-07-08T05:51:13;99629.77;;;27.19;36.74
74466;BME280;62916;50.044;15.938;2023-07-08T05:53:44;99626.61;;;27.17;36.67
74466;BME280;62916;50.044;15.938;2023-07-08T05:56:15;99624.05;;;27.21;36.77
74466;BME280;62916;50.044;15.938;2023-07-08T05:58:45;99622.27;;;27.21;36.70
74466;BME280;62916;50.044;15.938;2023-07-08T06:01:16;99622.27;;;27.21;36.75
74466;BME280;62916;50.044;15.938;2023-07-08T06:03:47;99619.02;;;27.21;36.81
74466;BME280;62916;50.044;15.938;2023-07-08T06:06:19;99622.37;;;27.22;36.63
74466;BME280;62916;50.044;15.938;2023-07-08T06:08:50;99617.55;;;27.21;36.78
74466;BME280;62916;50.044;15.938;2023-07-08T06:11:21;99622.30;;;27.22;36.73
74466;BME280;62916;50.044;15.938;2023-07-08T06:13:52;99618.65;;;27.22;36.69
74466;BME280;62916;50.044;15.938;2023-07-08T06:16:23;99621.09;;;27.22;36.69
74466;BME280;62916;50.044;15.938;2023-07-08T06:19:09;99618.21;;;27.22;36.64
74466;BME280;62916;50.044;15.938;2023-07-08T06:21:40;99615.70;;;27.20;36.82
74466;BME280;62916;50.044;15.938;2023-07-08T06:24:11;99619.24;;;27.23;36.82
74466;BME280;62916;50.044;15.938;2023-07-08T06:26:42;99623.25;;;27.24;36.83
74466;BME280;62916;50.044;15.938;2023-07-08T06:29:13;99625.80;;;27.24;37.11
74466;BME280;62916;50.044;15.938;2023-07-08T06:31:45;99623.29;;;27.24;36.83
74466;BME280;62916;50.044;15.938;2023-07-08T06:34:17;99626.79;;;27.26;36.73
74466;BME280;62916;50.044;15.938;2023-07-08T06:36:48;99622.02;;;27.27;36.98
74466;BME280;62916;50.044;15.938;2023-07-08T06:39:19;99621.56;;;27.29;36.94
74466;BME280;62916;50.044;15.938;2023-07-08T06:41:50;99618.36;;;27.31;37.06
74466;BME280;62916;50.044;15.938;2023-07-08T06:44:21;99619.32;;;27.32;37.07
74466;BME280;62916;50.044;15.938;2023-07-08T06:46:52;99617.24;;;27.33;37.08
74466;BME280;62916;50.044;15.938;2023-07-08T06:49:23;99617.70;;;27.34;37.12
74466;BME280;62916;50.044;15.938;2023-07-08T06:51:54;99620.50;;;27.35;37.21
74466;BME280;62916;50.044;15.938;2023-07-08T06:54:26;99617.27;;;27.36;37.13
74466;BME280;62916;50.044;15.938;2023-07-08T06:56:57;99617.61;;;27.36;37.05
74466;BME280;62916;50.044;15.938;2023-07-08T06:59:29;99609.77;;;27.36;36.99
74466;BME280;62916;50.044;15.938;2023-07-08T07:02:00;99604.69;;;27.35;37.24
74466;BME280;62916;50.044;15.938;2023-07-08T07:04:30;99608.55;;;27.34;37.16
74466;BME280;62916;50.044;15.938;2023-07-08T07:07:02;99611.66;;;27.34;36.98
74466;BME280;62916;50.044;15.938;2023-07-08T07:09:34;99614.11;;;27.34;37.19
74466;BME280;62916;50.044;15.938;2023-07-08T07:12:07;99607.14;;;27.35;37.05
74466;BME280;62916;50.044;15.938;2023-07-08T07:14:38;99607.77;;;27.35;37.05
74466;BME280;62916;50.044;15.938;2023-07-08T07:17:11;99607.06;;;27.35;37.27
74466;BME280;62916;50.044;15.938;2023-07-08T07:19:44;99603.04;;;27.36;37.17
74466;BME280;62916;50.044;15.938;2023-07-08T07:22:15;99604.52;;;27.36;37.17
74466;BME280;62916;50.044;15.938;2023-07-08T07:24:46;99601.59;;;27.37;37.31
74466;BME280;62916;50.044;15.938;2023-07-08T07:27:17;99599.88;;;27.37;37.21
74466;BME280;62916;50.044;15.938;2023-07-08T07:29:50;99598.27;;;27.37;37.17
74466;BME280;62916;50.044;15.938;2023-07-08T07:32:23;99596.89;;;27.38;37.26
74466;BME280;62916;50.044;15.938;2023-07-08T07:34:55;99598.56;;;27.40;37.27
74466;BME280;62916;50.044;15.938;2023-07-08T07:37:27;99602.61;;;27.41;37.08
74466;BME280;62916;50.044;15.938;2023-07-08T07:39:58;99601.29;;;27.43;37.05
74466;BME280;62916;50.044;15.938;2023-07-08T07:42:29;99602.70;;;27.45;36.93
74466;BME280;62916;50.044;15.938;2023-07-08T07:45:00;99602.27;;;27.45;36.81
74466;BME280;62916;50.044;15.938;2023-07-08T07:47:31;99605.95;;;27.48;36.69
74466;BME280;62916;50.044;15.938;2023-07-08T07:50:06;99601.39;;;27.48;36.82
74466;BME280;62916;50.044;15.938;2023-07-08T07:52:38;99595.87;;;27.52;36.77
74466;BME280;62916;50.044;15.938;2023-07-08T07:55:10;99596.83;;;27.53;37.03
74466;BME280;62916;50.044;15.938;2023-07-08T07:57:40;99591.53;;;27.55;37.00
74466;BME280;62916;50.044;15.938;2023-07-08T08:00:16;99590.39;;;27.56;37.04
74466;BME280;62916;50.044;15.938;2023-07-08T08:02:47;99590.86;;;27.58;37.06
74466;BME280;62916;50.044;15.938;2023-07-08T08:05:18;99589.11;;;27.60;37.16
74466;BME280;62916;50.044;15.938;2023-07-08T08:07:50;99591.40;;;27.63;36.88
74466;BME280;62916;50.044;15.938;2023-07-08T08:10:22;99587.95;;;27.62;36.92
74466;BME280;62916;50.044;15.938;2023-07-08T08:12:53;99593.54;;;27.65;36.89
74466;BME280;62916;50.044;15.938;2023-07-08T08:15:24;99594.66;;;27.67;36.92
74466;BME280;62916;50.044;15.938;2023-07-08T08:17:56;99594.14;;;27.69;36.85
74466;BME280;62916;50.044;15.938;2023-07-08T08:20:28;99586.90;;;27.69;36.95
74466;BME280;62916;50.044;15.938;2023-07-08T08:22:59;99593.29;;;27.73;37.01
74466;BME280;62916;50.044;15.938;2023-07-08T08:25:29;99595.67;;;27.73;36.68
74466;BME280;62916;50.044;15.938;2023-07-08T08:28:00;99590.23;;;27.74;36.38
74466;BME280;62916;50.044;15.938;2023-07-08T08:30:33;99587.16;;;27.75;36.63
74466;BME280;62916;50.044;15.938;2023-07-08T08:33:05;99585.20;;;27.77;36.39
74466;BME280;62916;50.044;15.938;2023-07-08T08:35:41;99587.05;;;27.79;36.49
74466;BME280;62916;50.044;15.938;2023-07-08T08:38:12;99586.52;;;27.78;36.32
74466;BME280;62916;50.044;15.938;2023-07-08T08:40:44;99589.00;;;27.76;36.20
74466;BME280;62916;50.044;15.938;2023-07-08T08:43:17;99587.58;;;27.75;36.08
74466;BME280;62916;50.044;15.938;2023-07-08T08:45:55;99585.14;;;27.75;36.24
74466;BME280;62916;50.044;15.938;2023-07-08T08:48:34;99583.54;;;27.76;35.85
74466;BME280;62916;50.044;15.938;2023-07-08T08:51:14;99582.25;;;27.76;35.82
74466;BME280;62916;50.044;15.938;2023-07-08T08:53:48;99581.91;;;27.76;35.82
74466;BME280;62916;50.044;15.938;2023-07-08T08:56:22;99581.89;;;27.75;35.73
74466;BME280;62916;50.044;15.938;2023-07-08T08:59:11;99578.33;;;27.76;35.72
74466;BME280;62916;50.044;15.938;2023-07-08T09:01:48;99585.05;;;27.77;35.53
74466;BME280;62916;50.044;15.938;2023-07-08T09:04:23;99581.27;;;27.79;35.28
74466;BME280;62916;50.044;15.938;2023-07-08T09:07:02;99576.72;;;27.79;35.06
74466;BME280;62916;50.044;15.938;2023-07-08T09:09:41;99571.54;;;27.80;34.88
74466;BME280;62916;50.044;15.938;2023-07-08T09:12:24;99567.83;;;27.82;34.80
74466;BME280;62916;50.044;15.938;2023-07-08T09:14:57;99569.67;;;27.83;34.83
74466;BME280;62916;50.044;15.938;2023-07-08T09:17:31;99560.81;;;27.83;34.78
74466;BME280;62916;50.044;15.938;2023-07-08T09:20:16;99560.48;;;27.83;34.63
74466;BME280;62916;50.044;15.938;2023-07-08T09:22:58;99559.01;;;27.83;34.43
74466;BME280;62916;50.044;15.938;2023-07-08T09:25:31;99562.33;;;27.85;34.67
74466;BME280;62916;50.044;15.938;2023-07-08T09:28:04;99564.39;;;27.83;34.55
74466;BME280;62916;50.044;15.938;2023-07-08T09:30:36;99566.13;;;27.84;34.64
74466;BME280;62916;50.044;15.938;2023-07-08T09:33:09;99567.29;;;27.85;34.54
74466;BME280;62916;50.044;15.938;2023-07-08T09:35:45;99566.77;;;27.87;34.48
74466;BME280;62916;50.044;15.938;2023-07-08T09:38:19;99564.96;;;27.86;34.52
74466;BME280;62916;50.044;15.938;2023-07-08T09:40:53;99566.80;;;27.87;34.47
74466;BME280;62916;50.044;15.938;2023-07-08T09:43:30;99562.80;;;27.87;34.30
74466;BME280;62916;50.044;15.938;2023-07-08T09:46:12;99565.20;;;27.88;34.33
74466;BME280;62916;50.044;15.938;2023-07-08T09:48:48;99560.32;;;27.89;34.47
74466;BME280;62916;50.044;15.938;2023-07-08T09:51:21;99560.80;;;27.88;34.51
74466;BME280;62916;50.044;15.938;2023-07-08T09:53:54;99557.58;;;27.90;34.59
74466;BME280;62916;50.044;15.938;2023-07-08T09:56:28;99556.24;;;27.92;34.68
74466;BME280;62916;50.044;15.938;2023-07-08T09:59:01;99556.20;;;27.93;34.60
74466;BME280;62916;50.044;15.938;2023-07-08T10:01:33;99557.98;;;27.95;34.74
74466;BME280;62916;50.044;15.938;2023-07-08T10:04:07;99557.08;;;27.97;34.74
74466;BME280;62916;50.044;15.938;2023-07-08T10:06:42;99560.97;;;27.99;34.84
74466;BME280;62916;50.044;15.938;2023-07-08T10:09:21;99557.70;;;27.99;34.62
74466;BME280;62916;50.044;15.938;2023-07-08T10:12:00;99553.85;;;28.01;34.74
74466;BME280;62916;50.044;15.938;2023-07-08T10:14:39;99556.46;;;28.03;34.76
74466;BME280;62916;50.044;15.938;2023-07-08T10:17:15;99554.13;;;28.04;34.51
74466;BME280;62916;50.044;15.938;2023-07-08T10:19:53;99549.34;;;28.07;34.45
74466;BME280;62916;50.044;15.938;2023-07-08T10:22:38;99546.14;;;28.07;34.53
74466;BME280;62916;50.044;15.938;2023-07-08T10:25:22;99550.80;;;28.10;34.42
74466;BME280;62916;50.044;15.938;2023-07-08T10:28:01;99547.45;;;28.12;34.28
74466;BME280;62916;50.044;15.938;2023-07-08T10:30:53;99548.82;;;28.15;34.43
74466;BME280;62916;50.044;15.938;2023-07-08T10:33:43;99545.10;;;28.17;34.28
74466;BME280;62916;50.044;15.938;2023-07-08T10:36:23;99546.37;;;28.19;34.14
74466;BME280;62916;50.044;15.938;2023-07-08T10:39:16;99539.21;;;28.23;34.14
74466;BME280;62916;50.044;15.938;2023-07-08T10:42:00;99537.08;;;28.25;33.93
74466;BME280;62916;50.044;15.938;2023-07-08T10:44:37;99533.63;;;28.26;33.96
74466;BME280;62916;50.044;15.938;2023-07-08T10:47:20;99529.64;;;28.29;34.18
74466;BME280;62916;50.044;15.938;2023-07-08T10:50:03;99526.27;;;28.32;33.99
74466;BME280;62916;50.044;15.938;2023-07-08T10:52:53;99521.80;;;28.34;33.80
74466;BME280;62916;50.044;15.938;2023-07-08T10:55:37;99522.60;;;28.36;33.57
74466;BME280;62916;50.044;15.938;2023-07-08T10:58:50;99523.38;;;28.38;33.27
74466;BME280;62916;50.044;15.938;2023-07-08T11:01:28;99514.29;;;28.39;33.27
74466;BME280;62916;50.044;15.938;2023-07-08T11:04:18;99507.34;;;28.42;33.33
74466;BME280;62916;50.044;15.938;2023-07-08T11:06:59;99512.17;;;28.45;33.36
74466;BME280;62916;50.044;15.938;2023-07-08T11:09:42;99514.02;;;28.47;33.37
74466;BME280;62916;50.044;15.938;2023-07-08T11:12:25;99508.35;;;28.48;33.23
74466;BME280;62916;50.044;15.938;2023-07-08T11:15:05;99512.55;;;28.50;33.32
74466;BME280;62916;50.044;15.938;2023-07-08T11:17:48;99510.98;;;28.52;33.43
74466;BME280;62916;50.044;15.938;2023-07-08T11:20:23;99503.55;;;28.55;33.47
74466;BME280;62916;50.044;15.938;2023-07-08T11:22:59;99505.73;;;28.57;33.24
74466;BME280;62916;50.044;15.938;2023-07-08T11:25:32;99500.40;;;28.58;33.07
74466;BME280;62916;50.044;15.938;2023-07-08T11:28:09;99498.88;;;28.59;32.93
74466;BME280;62916;50.044;15.938;2023-07-08T11:30:42;99500.22;;;28.62;32.78
74466;BME280;62916;50.044;15.938;2023-07-08T11:33:15;99493.03;;;28.61;32.70
74466;BME280;62916;50.044;15.938;2023-07-08T11:35:51;99493.36;;;28.64;32.30
74466;BME280;62916;50.044;15.938;2023-07-08T11:38:26;99490.27;;;28.67;31.98
74466;BME280;62916;50.044;15.938;2023-07-08T11:40:59;99490.09;;;28.69;31.84
74466;BME280;62916;50.044;15.938;2023-07-08T11:43:40;99487.34;;;28.70;31.43
74466;BME280;62916;50.044;15.938;2023-07-08T11:46:18;99482.77;;;28.71;31.49
74466;BME280;62916;50.044;15.938;2023-07-08T11:48:54;99475.83;;;28.73;31.72
74466;BME280;62916;50.044;15.938;2023-07-08T11:51:29;99471.39;;;28.75;31.72
74466;BME280;62916;50.044;15.938;2023-07-08T11:54:13;99470.14;;;28.77;31.97
74466;BME280;62916;50.044;15.938;2023-07-08T11:56:59;99470.98;;;28.79;32.06
74466;BME280;62916;50.044;15.938;2023-07-08T11:59:36;99467.27;;;28.81;32.11
74466;BME280;62916;50.044;15.938;2023-07-08T12:02:16;99460.84;;;28.82;32.16
74466;BME280;62916;50.044;15.938;2023-07-08T12:05:00;99466.83;;;28.83;32.19
74466;BME280;62916;50.044;15.938;2023-07-08T12:07:36;99463.85;;;28.84;32.36
74466;BME280;62916;50.044;15.938;2023-07-08T12:10:13;99456.80;;;28.86;32.38
74466;BME280;62916;50.044;15.938;2023-07-08T12:12:48;99447.58;;;28.86;32.63
74466;BME280;62916;50.044;15.938;2023-07-08T12:15:23;99447.09;;;28.88;32.50
74466;BME280;62916;50.044;15.938;2023-07-08T12:17:58;99449.95;;;28.89;32.61
74466;BME280;62916;50.044;15.938;2023-07-08T12:20:32;99445.66;;;28.90;32.69
74466;BME280;62916;50.044;15.938;2023-07-08T12:23:13;99442.81;;;28.92;32.71
74466;BME280;62916;50.044;15.938;2023-07-08T12:25:48;99436.30;;;28.92;32.46
74466;BME280;62916;50.044;15.938;2023-07-08T12:28:22;99435.31;;;28.91;32.47
74466;BME280;62916;50.044;15.938;2023-07-08T12:30:54;99431.00;;;28.92;32.36
74466;BME280;62916;50.044;15.938;2023-07-08T12:33:30;99426.79;;;28.93;31.90
74466;BME280;62916;50.044;15.938;2023-07-08T12:36:04;99425.27;;;28.95;31.89
74466;BME280;62916;50.044;15.938;2023-07-08T12:38:39;99424.79;;;28.95;31.47
74466;BME280;62916;50.044;15.938;2023-07-08T12:41:14;99427.92;;;28.96;31.48
74466;BME280;62916;50.044;15.938;2023-07-08T12:43:47;99430.18;;;28.98;30.88
74466;BME280;62916;50.044;15.938;2023-07-08T12:46:20;99433.57;;;29.00;30.89
74466;BME280;62916;50.044;15.938;2023-07-08T12:48:53;99434.98;;;29.01;30.71
74466;BME280;62916;50.044;15.938;2023-07-08T12:51:25;99429.36;;;29.02;30.30
74466;BME280;62916;50.044;15.938;2023-07-08T12:53:58;99434.49;;;29.01;30.44
74466;BME280;62916;50.044;15.938;2023-07-08T12:56:29;99431.61;;;29.00;30.22
74466;BME280;62916;50.044;15.938;2023-07-08T12:59:00;99427.55;;;29.01;30.13
74466;BME280;62916;50.044;15.938;2023-07-08T13:01:33;99428.27;;;29.00;29.95
74466;BME280;62916;50.044;15.938;2023-07-08T13:04:09;99426.51;;;29.02;29.84
74466;BME280;62916;50.044;15.938;2023-07-08T13:06:45;99422.14;;;29.00;29.81
74466;BME280;62916;50.044;15.938;2023-07-08T13:09:29;99418.73;;;29.01;29.57
74466;BME280;62916;50.044;15.938;2023-07-08T13:12:05;99417.39;;;29.03;29.50
74466;BME280;62916;50.044;15.938;2023-07-08T13:14:42;99408.67;;;29.03;29.32
74466;BME280;62916;50.044;15.938;2023-07-08T13:17:16;99415.31;;;29.07;29.38
74466;BME280;62916;50.044;15.938;2023-07-08T13:19:48;99411.48;;;29.08;29.27
74466;BME280;62916;50.044;15.938;2023-07-08T13:22:21;99414.69;;;29.08;28.97
74466;BME280;62916;50.044;15.938;2023-07-08T13:25:00;99412.59;;;29.09;29.16